Thunder radar more information blitzortung!


Löydät sääaseman tiedot myös:

European Weather Network

Finland Weather Exchange

Weather Underground

AWEKAS



Weather Underground säähistoriasivu

Päivittäin yhteenveto Helmikuu 28, 2017 Yksiköt:  Englantilaiset    Metriset   Molemmat
« Edellinen Päivä
Seuraava Päivä »
Päivittäin Viikoittain Kuukausittain Vuosittain Mukautettu
  Korkea: Matala: Keskiarvo:
Lämpötila: TemperatureC °F -1.4 °F 1.4 °F
Kastepiste: DewpointC °F -2.1 °F 1 °F
Kosteus: Humidity % 95 % 96 %
Tuulen nopeus: WindSpeedKMH mph 0.0 mph 0.9 mph
Tuulenpuuska: WindSpeedGustKMH mph - -
Tuuli:- - SSE
Ilmanpaine: PressurehPa in 986.3 in -
Sade: 0.0 in    
Historical Graphs
 
 
Taulukkotiedot Helmikuu 28, 2017
Aika Lämpötila Kastepiste Ilmanpaine Tuuli Tuulen nopeus Tuulenpuuska Kosteus Sademäärä (tunneittain)
TemperatureC °F DewpointC °F PressurehPa in Calm     Humidity % HourlyPrecipMM in
00:00 -1.4 °F -2.1 °F 996.5 in South 3.2 mph 11.3 mph 95 % 0.0 in
00:15 -1.4 °F -2.1 °F 996.5 in SSW 3.2 mph 9.7 mph 95 % 0.0 in
00:30 -1.3 °F -2.0 °F 996.2 in South 3.2 mph 11.3 mph 95 % 0.0 in
00:45 -1.2 °F -1.9 °F 996.2 in South 4.8 mph 9.7 mph 95 % 0.0 in
01:00 -1.1 °F -1.8 °F 996.2 in South 4.8 mph 12.9 mph 95 % 0.0 in
01:15 -1.0 °F -1.7 °F 996.2 in South 1.6 mph 9.7 mph 95 % 0.0 in
01:30 -0.8 °F -1.5 °F 996.2 in South 1.6 mph 9.7 mph 95 % 0.0 in
01:45 -0.7 °F -1.4 °F 995.8 in South 3.2 mph 12.9 mph 95 % 0.0 in
02:00 -0.6 °F -1.3 °F 995.8 in South 1.6 mph 9.7 mph 95 % 0.0 in
02:15 -0.5 °F -1.2 °F 995.8 in Calm   8.0 mph 95 % 0.0 in
02:30 -0.4 °F -1.1 °F 995.8 in Calm   6.4 mph 95 % 0.0 in
02:45 -0.3 °F -1.0 °F 995.8 in Calm   6.4 mph 95 % 0.0 in
03:00 -0.2 °F -0.8 °F 995.5 in South 1.6 mph 9.7 mph 96 % 0.0 in
03:15 -0.1 °F -0.6 °F 995.5 in Calm   8.0 mph 96 % 0.0 in
03:30 0.1 °F -0.5 °F 995.5 in Calm   4.8 mph 96 % 0.0 in
03:45 0.2 °F -0.4 °F 995.5 in Calm   8.0 mph 96 % 0.0 in
04:00 0.3 °F -0.3 °F 995.1 in South 1.6 mph 8.0 mph 96 % 0.0 in
04:15 0.3 °F -0.2 °F 995.1 in Calm   6.4 mph 96 % 0.0 in
04:30 0.4 °F -0.2 °F 994.8 in Calm   3.2 mph 96 % 0.0 in
04:45 0.4 °F -0.1 °F 994.8 in South 1.6 mph 8.0 mph 96 % 0.0 in
05:00 0.4 °F -0.1 °F 994.5 in Calm   6.4 mph 96 % 0.0 in
05:15 0.5 °F -0.1 °F 994.5 in Calm   6.4 mph 96 % 0.0 in
05:30 0.5 °F -0.1 °F 994.1 in Calm   6.4 mph 96 % 0.0 in
05:45 0.5 °F 0.1 °F 994.1 in Calm   3.2 mph 97 % 0.0 in
06:00 0.5 °F 0.1 °F 994.1 in Calm   9.7 mph 97 % 0.0 in
06:15 0.6 °F 0.0 °F 993.8 in Calm   6.4 mph 96 % 0.0 in
06:30 0.6 °F 0.1 °F 993.8 in Calm   3.2 mph 97 % 0.0 in
06:45 0.6 °F 0.1 °F 993.8 in Calm   3.2 mph 97 % 0.0 in
07:00 0.6 °F 0.2 °F 993.5 in Calm   3.2 mph 97 % 0.0 in
07:15 0.7 °F 0.2 °F 993.5 in Calm   1.6 mph 97 % 0.0 in
07:30 0.7 °F 0.2 °F 993.5 in Calm   9.7 mph 97 % 0.0 in
07:45 0.7 °F 0.2 °F 993.5 in Calm   6.4 mph 97 % 0.0 in
08:00 0.7 °F 0.3 °F 993.1 in SSE 1.6 mph 8.0 mph 97 % 0.0 in
08:15 0.7 °F 0.2 °F 992.8 in Calm   1.6 mph 97 % 0.0 in
08:30 0.8 °F 0.4 °F 993.1 in Calm   6.4 mph 97 % 0.0 in
08:45 0.8 °F 0.4 °F 993.1 in Calm   8.0 mph 97 % 0.0 in
09:00 0.9 °F 0.5 °F 992.8 in Calm   9.7 mph 97 % 0.0 in
09:15 1.0 °F 0.6 °F 993.1 in SSE 1.6 mph 9.7 mph 97 % 0.0 in
09:30 1.1 °F 0.7 °F 992.8 in Calm   6.4 mph 97 % 0.0 in
09:45 1.2 °F 0.7 °F 992.8 in Calm   9.7 mph 97 % 0.0 in
10:00 1.3 °F 0.9 °F 992.8 in Calm   9.7 mph 97 % 0.0 in
10:15 1.5 °F 1.1 °F 992.8 in SE 1.6 mph 8.0 mph 97 % 0.0 in
10:30 1.7 °F 1.2 °F 992.8 in South 1.6 mph 11.3 mph 97 % 0.0 in
10:45 1.8 °F 1.4 °F 992.8 in SSE 1.6 mph 9.7 mph 97 % 0.0 in
11:00 2.1 °F 1.6 °F 992.8 in SSE 1.6 mph 9.7 mph 97 % 0.0 in
11:15 2.2 °F 1.7 °F 992.4 in Calm   6.4 mph 97 % 0.0 in
11:30 2.2 °F 1.7 °F 992.4 in Calm     97 % 0.0 in
11:45 2.1 °F 1.7 °F 992.1 in Calm     97 % 0.0 in
12:00 2.1 °F 1.6 °F 991.8 in Calm   1.6 mph 97 % 0.0 in
12:15 2.2 °F 1.8 °F 991.4 in Calm   3.2 mph 97 % 0.0 in
12:30 2.4 °F 2.0 °F 991.8 in ESE 1.6 mph 6.4 mph 97 % 0.0 in
12:45 2.5 °F 2.1 °F 991.8 in Calm   3.2 mph 97 % 0.0 in
13:00 2.7 °F 2.2 °F 991.4 in Calm     97 % 0.0 in
13:15 2.8 °F 2.4 °F 991.4 in Calm   6.4 mph 97 % 0.0 in
13:30 2.8 °F 2.4 °F 991.1 in Calm   6.4 mph 97 % 0.0 in
13:45 3.1 °F 2.6 °F 990.7 in SSE 1.6 mph 8.0 mph 97 % 0.0 in
14:00 3.2 °F 2.7 °F 990.7 in Calm   8.0 mph 97 % 0.0 in
14:15 3.2 °F 2.7 °F 990.7 in Calm     97 % 0.0 in
14:30 3.0 °F 2.6 °F 990.4 in South 1.6 mph 8.0 mph 97 % 0.0 in
14:45 2.9 °F 2.5 °F 990.4 in SE 1.6 mph 11.3 mph 97 % 0.0 in
15:00 2.8 °F 2.4 °F 990.4 in SE 1.6 mph 9.7 mph 97 % 0.0 in
15:15 2.7 °F 2.2 °F 990.4 in SE 1.6 mph 8.0 mph 97 % 0.0 in
15:30 2.6 °F 2.2 °F 990.1 in Calm   8.0 mph 97 % 0.0 in
15:45 2.5 °F 2.1 °F 990.1 in Calm   8.0 mph 97 % 0.0 in
16:00 2.4 °F 2.0 °F 989.7 in Calm   1.6 mph 97 % 0.0 in
16:15 2.3 °F 1.9 °F 989.7 in SE 1.6 mph 11.3 mph 97 % 0.0 in
16:30 2.3 °F 1.9 °F 989.4 in SE 1.6 mph 12.9 mph 97 % 0.0 in
16:45 2.3 °F 1.9 °F 989.4 in Calm   11.3 mph 97 % 0.0 in
17:00 2.3 °F 1.9 °F 989.1 in Calm   8.0 mph 97 % 0.0 in
17:15 2.2 °F 1.8 °F 989.1 in Calm   6.4 mph 97 % 0.0 in
17:30 2.2 °F 1.8 °F 989.4 in SE 1.6 mph 6.4 mph 97 % 0.0 in
17:45 2.2 °F 1.8 °F 989.1 in Calm   8.0 mph 97 % 0.0 in
18:00 2.3 °F 1.9 °F 989.1 in SSE 1.6 mph 8.0 mph 97 % 0.0 in
18:15 2.2 °F 1.7 °F 989.1 in Calm   6.4 mph 97 % 0.0 in
18:30 2.3 °F 1.9 °F 988.7 in SSE 1.6 mph 12.9 mph 97 % 0.0 in
18:45 2.3 °F 1.9 °F 988.7 in South 1.6 mph 9.7 mph 97 % 0.0 in
19:00 2.4 °F 2.0 °F 988.7 in SE 1.6 mph 11.3 mph 97 % 0.0 in
19:15 2.3 °F 1.9 °F 988.4 in SSE 1.6 mph 9.7 mph 97 % 0.0 in
19:30 2.4 °F 2.0 °F 988.4 in SSE 1.6 mph 11.3 mph 97 % 0.0 in
19:45 2.3 °F 1.9 °F 988.0 in SE 1.6 mph 8.0 mph 97 % 0.0 in
20:00 2.4 °F 2.0 °F 988.0 in SSE 1.6 mph 9.7 mph 97 % 0.0 in
20:15 2.5 °F 2.1 °F 988.0 in SSE 1.6 mph 12.9 mph 97 % 0.0 in
20:30 2.5 °F 2.1 °F 987.7 in SE 1.6 mph 8.0 mph 97 % 0.0 in
20:45 2.5 °F 2.1 °F 987.7 in SSE 3.2 mph 12.9 mph 97 % 0.0 in
21:00 2.6 °F 2.1 °F 987.7 in SSE 1.6 mph 12.9 mph 97 % 0.0 in
21:15 2.6 °F 2.1 °F 987.4 in SE 1.6 mph 12.9 mph 97 % 0.0 in
21:30 2.4 °F 2.0 °F 987.4 in South 1.6 mph 8.0 mph 97 % 0.0 in
21:45 2.5 °F 2.1 °F 987.4 in Calm   6.4 mph 97 % 0.0 in
22:00 2.4 °F 2.0 °F 987.4 in South 1.6 mph 8.0 mph 97 % 0.0 in
22:15 2.6 °F 2.1 °F 987.0 in Calm   8.0 mph 97 % 0.0 in
22:30 2.6 °F 2.2 °F 987.0 in SE 1.6 mph 11.3 mph 97 % 0.0 in
22:45 2.6 °F 2.2 °F 987.0 in SSE 1.6 mph 11.3 mph 97 % 0.0 in
23:00 2.6 °F 2.1 °F 986.7 in South 1.6 mph 8.0 mph 97 % 0.0 in
23:15 2.7 °F 2.2 °F 986.7 in SE 1.6 mph 9.7 mph 97 % 0.0 in
23:30 2.6 °F 2.2 °F 986.3 in Calm   6.4 mph 97 % 0.0 in
23:45 2.5 °F 2.1 °F 986.3 in Calm   1.6 mph 97 % 0.0 in
Esan sääasema
Terveisin Weather Underground - 2.75 mb

Alkuperäinen skripti  Jim McMurry - jmcmurry@mwt.net Sovitettu myös templatelle  Wim van der Kuil - Leuven-Template.eu

Laitteet joita käytämme:

Sääasema
Davis VP2

Sääasemaohjelma
Cumulus

Sääaseman tietokone
Asus EeePC

Palveluntarjoaja
Suncomet

Davis VP2

Cumulus

Asus EeePC

Suncomet